Time;durP1;ratioP1;P1;durP2;ratioP2;P2;SDS_P1;SDS_P2;PMS_P1;PMS_P2;Temp;Humidity;BMP_temperature;BMP_pressure;BME280_temperature;BME280_humidity;BME280_pressure;Samples;Min_cycle;Max_cycle;Signal;HPM_P1;HPM_P2
2021/04/03 00:02:52;;;;;;;4.40;1.90;;;19.10;49.90;;;;;;10373384;28;20214;-69
2021/04/03 00:08:14;;;;;;;4.43;1.70;;;19.10;50.00;;;;;;10373034;28;20190;-70
2021/04/03 00:13:38;;;;;;;2.50;1.53;;;19.10;50.00;;;;;;10402150;28;20218;-70
2021/04/03 00:19:00;;;;;;;4.00;1.70;;;19.00;50.00;;;;;;10408705;28;20225;-70
2021/04/03 00:24:22;;;;;;;5.20;2.00;;;19.10;50.00;;;;;;10413193;28;20330;-71
2021/04/03 00:29:44;;;;;;;6.07;1.87;;;19.10;50.00;;;;;;10414501;28;20776;-68
2021/04/03 00:35:08;;;;;;;4.60;1.93;;;19.10;50.00;;;;;;10413051;28;20228;-67
2021/04/03 00:40:33;;;;;;;4.30;1.60;;;19.10;50.00;;;;;;10373582;28;20226;-70
2021/04/03 00:45:55;;;;;;;3.57;1.70;;;19.00;50.00;;;;;;10371721;28;20222;-67
2021/04/03 00:51:17;;;;;;;2.73;1.60;;;19.00;50.00;;;;;;10404865;28;20735;-70
2021/04/03 00:56:39;;;;;;;3.97;1.43;;;19.00;50.00;;;;;;10412377;28;20202;-70
2021/04/03 01:02:01;;;;;;;2.50;1.43;;;19.00;50.00;;;;;;10371136;28;20280;-71
2021/04/03 01:07:23;;;;;;;3.67;1.63;;;19.00;50.00;;;;;;10372082;28;20603;-70
2021/04/03 01:12:56;;;;;;;3.00;1.40;;;19.00;50.10;;;;;;10371059;28;20246;-67
2021/04/03 01:18:25;;;;;;;3.87;1.63;;;19.00;50.10;;;;;;10371548;28;20314;-70
2021/04/03 01:24:30;;;;;;;3.83;1.50;;;19.00;50.00;;;;;;10388546;28;20246;-70
2021/04/03 01:30:08;;;;;;;3.97;1.80;;;19.00;49.90;;;;;;10412192;28;20256;-70
2021/04/03 01:35:40;;;;;;;3.80;1.37;;;19.00;49.90;;;;;;10393976;28;20241;-70
2021/04/03 01:41:03;;;;;;;2.63;1.47;;;19.00;50.00;;;;;;10401589;28;20244;-70
2021/04/03 01:46:28;;;;;;;3.57;1.50;;;18.90;50.00;;;;;;10409291;28;20198;-68
2021/04/03 01:51:51;;;;;;;3.57;1.40;;;19.00;50.00;;;;;;10408898;28;20218;-70
2021/04/03 01:57:13;;;;;;;2.47;1.37;;;18.90;49.90;;;;;;10409310;28;20189;-67
2021/04/03 02:02:38;;;;;;;3.67;1.33;;;18.90;50.00;;;;;;10410815;28;20214;-69
2021/04/03 02:08:01;;;;;;;5.97;1.57;;;18.90;50.10;;;;;;10409993;28;20202;-70
2021/04/03 02:13:22;;;;;;;4.17;1.50;;;18.90;50.10;;;;;;10410659;28;20229;-67
2021/04/03 02:18:45;;;;;;;3.60;1.53;;;18.90;50.10;;;;;;10410921;28;20217;-69
2021/04/03 02:24:08;;;;;;;3.53;1.60;;;18.90;50.00;;;;;;10410566;28;20226;-70
2021/04/03 02:29:29;;;;;;;4.83;1.57;;;18.90;50.00;;;;;;10408695;28;20209;-70
2021/04/03 02:34:52;;;;;;;2.57;1.60;;;18.90;50.00;;;;;;10396226;28;20272;-70
2021/04/03 02:40:17;;;;;;;4.50;1.63;;;18.90;50.00;;;;;;10369339;28;20264;-70
2021/04/03 02:45:44;;;;;;;4.40;1.57;;;18.90;50.10;;;;;;10375083;28;20245;-70
2021/04/03 02:51:08;;;;;;;3.57;1.33;;;18.90;50.10;;;;;;10386675;28;20612;-70
2021/04/03 02:56:31;;;;;;;6.00;2.00;;;18.90;50.10;;;;;;10410594;28;20190;-70
2021/04/03 03:01:54;;;;;;;3.13;1.73;;;18.90;50.00;;;;;;10368406;28;20226;-70
2021/04/03 03:07:18;;;;;;;5.60;1.80;;;18.90;50.00;;;;;;10372178;28;20720;-70
2021/04/03 03:12:42;;;;;;;3.50;1.60;;;18.90;50.10;;;;;;10389439;28;20234;-70
2021/04/03 03:18:05;;;;;;;4.50;1.80;;;18.90;50.20;;;;;;10376139;28;20210;-69
2021/04/03 03:23:28;;;;;;;3.77;1.53;;;18.80;50.10;;;;;;10403852;28;20226;-69
2021/04/03 03:28:52;;;;;;;3.00;1.53;;;18.80;50.20;;;;;;10375204;28;20233;-70
2021/04/03 03:34:13;;;;;;;2.90;1.30;;;18.80;50.20;;;;;;10374931;28;20222;-70
2021/04/03 03:39:36;;;;;;;5.03;1.67;;;18.80;50.10;;;;;;10374324;28;20225;-70
2021/04/03 03:44:58;;;;;;;4.77;1.80;;;18.80;50.10;;;;;;10409372;28;20221;-70
2021/04/03 03:50:20;;;;;;;2.80;1.43;;;18.80;50.10;;;;;;10401333;28;20252;-67
2021/04/03 03:55:42;;;;;;;3.77;1.73;;;18.80;50.10;;;;;;10373655;28;20294;-70
2021/04/03 04:01:04;;;;;;;5.07;1.73;;;18.80;50.10;;;;;;10411740;28;20605;-70
2021/04/03 04:06:26;;;;;;;4.17;1.43;;;18.80;50.10;;;;;;10415358;28;20213;-70
2021/04/03 04:11:48;;;;;;;3.43;1.80;;;18.80;50.20;;;;;;10413022;28;20225;-70
2021/04/03 04:17:10;;;;;;;3.30;1.47;;;18.80;50.20;;;;;;10413652;28;20247;-68
2021/04/03 04:22:31;;;;;;;4.33;1.70;;;18.80;50.30;;;;;;10396900;28;20226;-70
2021/04/03 04:27:54;;;;;;;3.73;1.80;;;18.80;50.20;;;;;;10373658;28;20199;-70
2021/04/03 04:33:16;;;;;;;3.70;1.60;;;18.80;50.20;;;;;;10373380;28;20276;-71
2021/04/03 04:38:37;;;;;;;5.40;1.40;;;18.80;50.20;;;;;;10379979;28;20684;-70
2021/04/03 04:44:00;;;;;;;4.83;1.73;;;18.80;50.20;;;;;;10410804;28;20225;-68
2021/04/03 04:49:21;;;;;;;5.23;1.60;;;18.90;50.10;;;;;;10413289;28;20272;-70
2021/04/03 04:54:43;;;;;;;4.63;1.70;;;18.90;50.10;;;;;;10413767;28;20218;-70
2021/04/03 05:00:07;;;;;;;5.53;1.70;;;18.90;50.00;;;;;;10383080;28;20224;-70
2021/04/03 05:05:28;;;;;;;6.93;1.90;;;18.90;49.90;;;;;;10380845;28;20222;-68
2021/04/03 05:10:50;;;;;;;3.80;1.30;;;18.90;50.50;;;;;;10371513;28;20216;-69
2021/04/03 05:16:12;;;;;;;2.63;1.50;;;18.90;49.90;;;;;;10371193;28;20264;-70
2021/04/03 05:21:34;;;;;;;4.70;1.70;;;18.90;49.90;;;;;;10371703;28;20702;-70
2021/04/03 05:26:56;;;;;;;3.40;1.63;;;18.90;49.90;;;;;;10390498;28;20308;-70
2021/04/03 05:32:18;;;;;;;4.00;1.60;;;18.90;50.00;;;;;;10408757;28;20585;-68
2021/04/03 05:37:40;;;;;;;2.73;1.37;;;18.90;49.90;;;;;;10411687;28;20220;-71
2021/04/03 05:43:03;;;;;;;3.97;2.00;;;18.90;49.90;;;;;;10411149;28;20570;-70
2021/04/03 05:48:26;;;;;;;4.30;2.00;;;18.90;50.00;;;;;;10411572;28;20600;-70
2021/04/03 05:53:48;;;;;;;4.10;1.70;;;18.90;49.90;;;;;;10407718;28;20218;-70
2021/04/03 05:59:10;;;;;;;5.07;1.70;;;18.90;49.90;;;;;;10396589;28;20240;-70
2021/04/03 06:04:32;;;;;;;2.77;1.53;;;18.90;49.90;;;;;;10408381;28;20268;-72
2021/04/03 06:09:55;;;;;;;3.27;1.43;;;18.90;50.00;;;;;;10401928;28;20197;-70
2021/04/03 06:15:35;;;;;;;6.27;2.20;;;18.90;50.00;;;;;;10401725;28;20233;-70
2021/04/03 06:21:08;;;;;;;3.13;1.30;;;18.90;50.00;;;;;;10403203;28;20263;-70
2021/04/03 06:26:30;;;;;;;2.53;1.40;;;18.90;50.10;;;;;;10405448;28;20230;-70
2021/04/03 06:31:53;;;;;;;3.70;1.67;;;18.90;50.10;;;;;;10404412;28;20608;-70
2021/04/03 06:37:24;;;;;;;6.03;1.73;;;18.90;50.00;;;;;;10401649;28;20194;-70
2021/04/03 06:42:48;;;;;;;4.63;1.67;;;18.90;50.10;;;;;;10409891;28;20222;-70
2021/04/03 06:48:09;;;;;;;4.03;1.70;;;18.90;50.10;;;;;;10414456;28;20202;-69
2021/04/03 06:53:34;;;;;;;3.87;1.90;;;18.90;50.10;;;;;;10414435;28;20221;-70
2021/04/03 06:58:59;;;;;;;4.93;1.90;;;18.90;49.90;;;;;;10397961;28;20219;-68
2021/04/03 07:04:25;;;;;;;3.53;1.60;;;18.90;49.70;;;;;;10414915;28;20221;-70
2021/04/03 07:09:48;;;;;;;3.37;1.40;;;18.90;49.80;;;;;;10417172;28;20193;-70
2021/04/03 07:15:12;;;;;;;4.20;1.87;;;18.90;49.90;;;;;;10416091;28;20225;-66
2021/04/03 07:20:34;;;;;;;3.83;1.50;;;18.90;50.10;;;;;;10406555;28;20641;-68
2021/04/03 07:26:00;;;;;;;5.20;2.13;;;18.80;49.70;;;;;;10375738;28;20696;-66
2021/04/03 07:31:37;;;;;;;6.37;2.50;;;18.80;49.10;;;;;;10375063;28;20245;-68
2021/04/03 07:36:59;;;;;;;4.80;2.00;;;18.80;49.40;;;;;;10376838;28;20206;-69
2021/04/03 07:42:34;;;;;;;7.73;2.47;;;18.80;48.80;;;;;;10402397;28;20288;-66
2021/04/03 07:47:55;;;;;;;9.23;2.40;;;18.80;47.50;;;;;;10414067;28;20232;-66
2021/04/03 07:53:33;;;;;;;7.57;2.80;;;18.70;47.20;;;;;;10387267;28;20218;-67
2021/04/03 07:58:57;;;;;;;9.73;2.80;;;18.60;45.70;;;;;;10394293;28;20628;-68
2021/04/03 08:04:26;;;;;;;6.77;2.60;;;18.60;44.80;;;;;;10415014;28;20589;-74
2021/04/03 08:09:48;;;;;;;9.20;2.77;;;18.50;44.30;;;;;;10415336;28;20564;-70
2021/04/03 08:15:12;;;;;;;7.57;2.60;;;18.60;43.40;;;;;;10414928;28;20643;-67
2021/04/03 08:20:34;;;;;;;11.30;2.30;;;18.50;43.00;;;;;;10413157;28;20221;-67
2021/04/03 08:25:56;;;;;;;5.87;2.13;;;18.50;43.30;;;;;;10382805;28;20225;-66
2021/04/03 08:31:21;;;;;;;4.80;1.90;;;18.60;44.10;;;;;;10373153;28;20242;-68
2021/04/03 08:36:43;;;;;;;8.33;1.90;;;18.70;44.30;;;;;;10373044;28;20201;-63
2021/04/03 08:42:05;;;;;;;5.07;1.97;;;18.70;43.90;;;;;;10403849;28;20771;-66
2021/04/03 08:47:27;;;;;;;4.70;1.80;;;18.70;44.10;;;;;;10413220;28;20202;-67
2021/04/03 08:52:49;;;;;;;5.33;2.20;;;18.70;44.30;;;;;;10412934;28;20697;-67
2021/04/03 08:58:11;;;;;;;6.17;1.80;;;18.70;43.90;;;;;;10385278;28;20343;-67
2021/04/03 09:03:35;;;;;;;4.33;1.70;;;18.40;39.40;;;;;;10410838;28;20218;-67
2021/04/03 09:09:08;;;;;;;2.83;1.20;;;18.20;37.70;;;;;;10409765;28;20190;-67
2021/04/03 09:14:31;;;;;;;4.90;2.00;;;17.90;37.00;;;;;;10374745;28;20849;-69
2021/04/03 09:20:05;;;;;;;5.03;1.53;;;17.90;37.50;;;;;;10411208;28;20311;-67
2021/04/03 09:25:30;;;;;;;6.13;1.73;;;17.80;36.80;;;;;;10395493;28;20635;-70
2021/04/03 09:30:54;;;;;;;4.03;1.30;;;17.80;36.80;;;;;;10411105;28;20213;-69
2021/04/03 09:36:18;;;;;;;3.70;1.17;;;17.70;36.00;;;;;;10410993;28;20669;-69
2021/04/03 09:41:45;;;;;;;2.33;1.03;;;17.60;35.20;;;;;;10391264;28;20769;-69
2021/04/03 09:47:07;;;;;;;5.07;1.20;;;17.50;34.90;;;;;;10409273;28;20204;-70
2021/04/03 09:52:30;;;;;;;3.50;0.93;;;17.50;34.90;;;;;;10411311;28;20266;-69
2021/04/03 09:57:51;;;;;;;5.85;1.10;;;17.50;34.30;;;;;;10405304;28;20443;-67
2021/04/03 10:03:13;;;;;;;9.33;1.20;;;17.40;34.80;;;;;;10400287;28;20221;-69
2021/04/03 10:08:35;;;;;;;3.10;0.90;;;17.60;34.90;;;;;;10409275;28;20194;-68
2021/04/03 10:13:57;;;;;;;4.00;1.00;;;17.80;35.90;;;;;;10489455;22;20251;-68
2021/04/03 10:19:19;;;;;;;1.93;0.90;;;17.90;37.20;;;;;;10463483;28;20207;-69
2021/04/03 10:24:41;;;;;;;1.87;0.77;;;18.00;37.80;;;;;;10438372;28;20218;-68
2021/04/03 10:30:04;;;;;;;1.70;0.50;;;18.10;38.40;;;;;;10427866;28;20664;-68
2021/04/03 10:35:26;;;;;;;2.90;0.70;;;18.10;39.10;;;;;;10458215;28;20718;-69
2021/04/03 10:40:48;;;;;;;2.07;0.67;;;18.10;39.50;;;;;;10460978;28;20227;-68
2021/04/03 10:46:10;;;;;;;2.23;0.80;;;18.20;39.70;;;;;;10460738;28;20221;-68
2021/04/03 10:51:32;;;;;;;1.87;0.90;;;18.20;40.30;;;;;;10458699;28;20193;-68
2021/04/03 10:56:54;;;;;;;2.90;0.87;;;18.20;39.80;;;;;;10459373;28;20188;-67
2021/04/03 11:02:16;;;;;;;1.53;0.83;;;18.20;39.10;;;;;;10456132;28;20256;-68
2021/04/03 11:07:38;;;;;;;1.20;0.73;;;18.20;39.60;;;;;;10452603;28;20250;-68
2021/04/03 11:13:00;;;;;;;1.40;0.60;;;18.20;39.90;;;;;;10451932;28;20719;-67
2021/04/03 11:18:22;;;;;;;1.60;0.80;;;18.20;40.10;;;;;;10452764;28;20591;-68
2021/04/03 11:23:43;;;;;;;2.27;0.80;;;18.30;40.50;;;;;;10453487;28;20212;-66
2021/04/03 11:29:06;;;;;;;2.63;0.77;;;18.20;40.20;;;;;;10456761;28;20205;-68
2021/04/03 11:34:28;;;;;;;2.97;1.00;;;18.30;40.40;;;;;;10454045;28;20220;-66
2021/04/03 11:39:49;;;;;;;2.30;0.70;;;18.30;41.40;;;;;;10451041;28;20255;-67
2021/04/03 11:45:13;;;;;;;1.13;0.50;;;18.20;40.90;;;;;;10453694;28;20215;-67
2021/04/03 11:50:35;;;;;;;1.80;0.70;;;18.30;40.40;;;;;;10457161;28;20189;-68
2021/04/03 11:55:57;;;;;;;2.00;0.70;;;18.20;40.10;;;;;;10457621;28;20217;-66
2021/04/03 12:01:20;;;;;;;2.30;0.67;;;18.30;40.40;;;;;;10457183;28;20581;-67
2021/04/03 12:06:41;;;;;;;1.50;0.80;;;18.30;40.60;;;;;;10455425;28;20205;-67
2021/04/03 12:12:05;;;;;;;4.10;1.50;;;18.30;40.90;;;;;;10452568;28;20284;-67
2021/04/03 12:17:27;;;;;;;3.00;1.23;;;18.30;40.90;;;;;;10455106;28;20221;-67
2021/04/03 12:22:49;;;;;;;3.57;1.23;;;18.30;41.10;;;;;;10455508;28;20225;-67
2021/04/03 12:28:11;;;;;;;4.07;1.40;;;18.30;40.70;;;;;;10423341;28;20201;-67
2021/04/03 12:33:34;;;;;;;4.27;1.20;;;18.30;40.60;;;;;;10413818;28;20758;-68
2021/04/03 12:38:55;;;;;;;5.53;1.30;;;18.30;40.80;;;;;;10413977;28;20221;-67
2021/04/03 12:44:17;;;;;;;4.27;1.70;;;18.30;41.10;;;;;;10425421;28;20566;-67
2021/04/03 12:49:39;;;;;;;5.33;1.37;;;18.30;40.90;;;;;;10434210;28;20193;-67
2021/04/03 12:55:01;;;;;;;4.57;1.63;;;18.30;41.20;;;;;;10452919;28;20615;-67
2021/04/03 13:00:24;;;;;;;5.93;1.80;;;18.30;41.70;;;;;;10453701;28;20213;-68
2021/04/03 13:05:48;;;;;;;4.60;1.43;;;18.30;41.60;;;;;;10452622;28;20239;-67
2021/04/03 13:11:10;;;;;;;4.30;1.83;;;18.30;41.40;;;;;;10410647;28;20244;-67
2021/04/03 13:16:31;;;;;;;6.63;1.73;;;18.30;41.00;;;;;;10412190;28;20225;-67
2021/04/03 13:21:54;;;;;;;5.83;2.17;;;18.30;42.30;;;;;;10409743;28;20232;-67
2021/04/03 13:27:15;;;;;;;8.57;2.33;;;18.30;42.70;;;;;;10441316;28;20274;-67
2021/04/03 13:32:37;;;;;;;9.13;2.80;;;18.30;42.90;;;;;;10449613;28;20588;-67
2021/04/03 13:38:00;;;;;;;12.87;3.40;;;18.30;43.90;;;;;;10451135;28;21054;-67
2021/04/03 13:43:21;;;;;;;8.87;3.43;;;18.30;44.30;;;;;;10431708;28;20217;-68
2021/04/03 13:48:43;;;;;;;8.70;2.90;;;18.30;43.60;;;;;;10450097;28;20215;-67
2021/04/03 13:54:06;;;;;;;7.77;2.87;;;18.30;43.30;;;;;;10449915;28;20634;-66
2021/04/03 13:59:27;;;;;;;9.10;2.80;;;18.20;42.60;;;;;;10452002;28;20212;-67
2021/04/03 14:04:50;;;;;;;7.87;2.73;;;18.20;42.10;;;;;;10452889;28;20213;-67
2021/04/03 14:10:12;;;;;;;9.13;3.03;;;18.30;42.70;;;;;;10451700;28;20196;-68
2021/04/03 14:15:34;;;;;;;7.20;2.37;;;18.30;42.70;;;;;;10451081;28;20216;-67
2021/04/03 14:20:56;;;;;;;5.73;1.97;;;18.30;41.70;;;;;;10452887;28;20259;-67
2021/04/03 14:26:18;;;;;;;4.70;2.20;;;18.20;40.90;;;;;;10452415;28;20213;-68
2021/04/03 14:31:41;;;;;;;3.10;1.80;;;18.30;41.60;;;;;;10451842;28;20181;-67
2021/04/03 14:37:03;;;;;;;3.80;1.63;;;18.30;41.30;;;;;;10449548;28;20287;-66
2021/04/03 14:42:25;;;;;;;6.33;2.13;;;18.20;40.90;;;;;;10451540;28;20267;-67
2021/04/03 14:47:47;;;;;;;3.57;1.90;;;18.30;41.00;;;;;;10451540;28;20201;-68
2021/04/03 14:53:08;;;;;;;3.00;1.63;;;18.30;40.90;;;;;;10451916;28;20205;-67
2021/04/03 14:58:31;;;;;;;4.20;1.70;;;18.20;40.70;;;;;;10454545;28;20267;-68
2021/04/03 15:03:53;;;;;;;2.40;1.43;;;18.30;41.20;;;;;;10456763;28;20205;-67
2021/04/03 15:09:15;;;;;;;4.57;1.97;;;18.30;41.60;;;;;;10458704;28;20323;-68
2021/04/03 15:14:37;;;;;;;3.43;1.80;;;18.30;41.30;;;;;;10457068;28;20224;-67
2021/04/03 15:19:59;;;;;;;4.27;1.53;;;18.30;41.40;;;;;;10457318;28;20201;-67
2021/04/03 15:25:21;;;;;;;3.00;1.57;;;18.30;42.10;;;;;;10452680;28;20745;-67
2021/04/03 15:30:43;;;;;;;2.70;1.37;;;18.30;41.10;;;;;;10451840;28;20186;-67
2021/04/03 15:36:07;;;;;;;4.00;1.60;;;18.30;41.80;;;;;;10451749;28;20213;-67
2021/04/03 15:41:28;;;;;;;4.90;1.33;;;18.30;41.70;;;;;;10451545;28;20267;-67
2021/04/03 15:46:51;;;;;;;5.37;1.80;;;18.30;41.60;;;;;;10448187;28;20595;-68
2021/04/03 15:52:12;;;;;;;3.87;1.50;;;18.30;42.70;;;;;;10445781;28;20742;-68
2021/04/03 15:57:35;;;;;;;4.93;1.93;;;18.30;42.60;;;;;;10447587;28;20271;-67
2021/04/03 16:02:57;;;;;;;5.63;1.93;;;18.30;42.20;;;;;;10413607;28;20213;-68
2021/04/03 16:08:19;;;;;;;4.13;1.70;;;18.30;41.70;;;;;;10414200;28;20247;-68
2021/04/03 16:13:40;;;;;;;2.87;1.40;;;18.20;41.80;;;;;;10428428;22;20598;-64
2021/04/03 16:19:03;;;;;;;4.20;1.50;;;18.20;42.60;;;;;;10393962;28;20216;-66
2021/04/03 16:24:25;;;;;;;4.07;1.60;;;18.20;42.40;;;;;;10413052;28;20233;-66
2021/04/03 16:29:46;;;;;;;3.40;1.37;;;18.30;42.20;;;;;;10413385;28;20699;-66
2021/04/03 16:35:10;;;;;;;3.67;1.70;;;18.30;43.00;;;;;;10414236;28;20213;-66
2021/04/03 16:40:31;;;;;;;5.67;1.20;;;18.30;42.50;;;;;;10414450;28;20220;-66
2021/04/03 16:45:53;;;;;;;4.00;1.80;;;18.30;42.00;;;;;;10394452;28;20597;-67
2021/04/03 16:51:15;;;;;;;4.37;1.50;;;18.30;42.30;;;;;;10372247;28;20666;-66
2021/04/03 16:56:37;;;;;;;3.63;1.40;;;18.30;42.30;;;;;;10410928;28;20224;-67
2021/04/03 17:01:59;;;;;;;3.03;1.60;;;18.30;42.10;;;;;;10412650;28;20249;-64
2021/04/03 17:07:21;;;;;;;4.77;1.50;;;18.20;42.00;;;;;;10412214;28;20903;-66
2021/04/03 17:12:43;;;;;;;5.10;1.93;;;18.30;42.10;;;;;;10412173;28;20221;-66
2021/04/03 17:18:05;;;;;;;4.47;1.70;;;18.30;42.30;;;;;;10405112;28;20205;-67
2021/04/03 17:23:29;;;;;;;4.90;2.10;;;18.30;42.70;;;;;;10404577;28;20225;-67
2021/04/03 17:28:51;;;;;;;4.93;1.93;;;18.30;42.70;;;;;;10408847;28;20248;-66
2021/04/03 17:34:12;;;;;;;4.03;1.67;;;18.30;42.50;;;;;;10410520;28;20596;-67
2021/04/03 17:39:35;;;;;;;7.03;2.67;;;18.30;41.90;;;;;;10409420;28;20209;-66
2021/04/03 17:44:56;;;;;;;10.60;2.40;;;18.20;41.90;;;;;;10399704;28;20225;-66
2021/04/03 17:50:18;;;;;;;3.87;2.37;;;18.20;42.10;;;;;;10404882;28;20201;-65
2021/04/03 17:55:41;;;;;;;7.73;2.77;;;18.20;42.20;;;;;;10407262;28;20225;-66
2021/04/03 18:01:03;;;;;;;5.50;2.70;;;18.20;42.20;;;;;;10402650;28;20632;-67
2021/04/03 18:06:25;;;;;;;8.37;3.03;;;18.30;42.50;;;;;;10404085;28;20351;-67
2021/04/03 18:11:48;;;;;;;7.60;3.13;;;18.30;43.30;;;;;;10404641;28;20734;-65
2021/04/03 18:17:09;;;;;;;4.20;2.20;;;18.30;43.60;;;;;;10404681;28;20271;-67
2021/04/03 18:22:31;;;;;;;5.43;2.67;;;18.40;43.80;;;;;;10404011;28;20225;-66
2021/04/03 18:27:53;;;;;;;6.37;2.80;;;18.40;43.90;;;;;;10404530;28;20580;-67
2021/04/03 18:33:15;;;;;;;6.23;2.87;;;18.50;44.10;;;;;;10404283;28;20222;-66
2021/04/03 18:38:37;;;;;;;5.53;2.43;;;18.50;44.20;;;;;;10411277;28;20204;-65
2021/04/03 18:44:00;;;;;;;4.20;2.20;;;18.50;44.50;;;;;;10412169;28;20248;-66
2021/04/03 18:49:22;;;;;;;5.90;2.87;;;18.50;44.60;;;;;;10411943;28;20561;-67
2021/04/03 18:54:43;;;;;;;5.37;2.70;;;18.50;44.70;;;;;;10410870;28;20225;-65
2021/04/03 19:00:08;;;;;;;5.10;2.40;;;18.50;44.80;;;;;;10409851;28;20564;-66
2021/04/03 19:05:29;;;;;;;5.60;2.30;;;18.60;45.00;;;;;;10411348;28;20557;-66
2021/04/03 19:10:51;;;;;;;4.67;2.50;;;18.60;45.10;;;;;;10411537;28;20186;-67
2021/04/03 19:16:13;;;;;;;4.77;2.37;;;18.60;45.10;;;;;;10412010;28;20218;-67
2021/04/03 19:21:35;;;;;;;5.00;2.07;;;18.60;45.20;;;;;;10410829;28;20746;-65
2021/04/03 19:26:57;;;;;;;4.07;2.20;;;18.60;45.20;;;;;;10410636;28;20221;-66
2021/04/03 19:32:23;;;;;;;4.50;2.07;;;18.60;45.20;;;;;;10409871;28;20676;-67
2021/04/03 19:37:45;;;;;;;4.17;2.30;;;18.70;45.30;;;;;;10410636;28;20245;-65
2021/04/03 19:43:07;;;;;;;7.10;2.60;;;18.70;45.40;;;;;;10410390;28;20225;-67
2021/04/03 19:48:29;;;;;;;3.50;1.90;;;18.70;45.50;;;;;;10415057;28;20194;-67
2021/04/03 19:53:51;;;;;;;5.63;2.30;;;18.70;45.50;;;;;;10414231;28;20244;-67
2021/04/03 19:59:12;;;;;;;4.93;2.30;;;18.70;45.50;;;;;;10415931;28;20323;-67
2021/04/03 20:04:35;;;;;;;4.93;2.30;;;18.70;45.50;;;;;;10415369;28;20778;-65
2021/04/03 20:09:57;;;;;;;4.87;2.70;;;18.70;45.50;;;;;;10414866;28;20186;-66
2021/04/03 20:15:19;;;;;;;3.77;2.13;;;18.70;45.60;;;;;;10375226;28;20225;-67
2021/04/03 20:20:43;;;;;;;4.80;2.20;;;18.70;45.70;;;;;;10371947;28;20759;-67
2021/04/03 20:26:04;;;;;;;5.00;2.30;;;18.70;45.80;;;;;;10406668;28;20222;-67
2021/04/03 20:31:26;;;;;;;4.53;2.10;;;18.70;45.70;;;;;;10413144;28;20624;-67
2021/04/03 20:36:49;;;;;;;4.37;2.37;;;18.70;45.70;;;;;;10414664;28;20245;-67
2021/04/03 20:42:10;;;;;;;4.77;2.40;;;18.80;45.90;;;;;;10413269;28;20213;-67
2021/04/03 20:47:32;;;;;;;6.13;2.60;;;18.80;46.10;;;;;;10412926;28;20189;-67
2021/04/03 20:52:55;;;;;;;3.63;2.30;;;18.70;46.10;;;;;;10411731;28;20297;-67
2021/04/03 20:58:16;;;;;;;3.40;1.97;;;18.70;46.30;;;;;;10412578;28;20202;-67
2021/04/03 21:03:38;;;;;;;5.13;2.07;;;18.70;46.40;;;;;;10411486;28;20793;-67
2021/04/03 21:09:01;;;;;;;4.47;2.47;;;18.60;46.50;;;;;;10411688;28;20193;-67
2021/04/03 21:14:22;;;;;;;4.93;2.43;;;18.60;46.70;;;;;;10412550;28;20225;-65
2021/04/03 21:19:44;;;;;;;4.43;2.20;;;18.60;46.70;;;;;;10412164;28;20225;-64
2021/04/03 21:25:08;;;;;;;4.17;2.23;;;18.50;46.90;;;;;;10411400;28;20228;-67
2021/04/03 21:30:29;;;;;;;3.67;2.20;;;18.50;47.00;;;;;;10411903;28;20197;-67
2021/04/03 21:35:51;;;;;;;4.43;1.80;;;18.50;47.10;;;;;;10410800;28;20225;-65
2021/04/03 21:41:14;;;;;;;4.93;2.20;;;18.50;47.10;;;;;;10411557;28;20215;-67
2021/04/03 21:46:35;;;;;;;5.33;2.10;;;18.50;47.10;;;;;;10410998;28;20221;-67
2021/04/03 21:51:57;;;;;;;5.20;2.27;;;18.50;47.10;;;;;;10410995;28;20243;-67
2021/04/03 21:57:20;;;;;;;3.77;2.33;;;18.60;47.10;;;;;;10409672;28;20796;-67
2021/04/03 22:02:42;;;;;;;5.33;2.53;;;18.50;47.10;;;;;;10411191;28;20233;-67
2021/04/03 22:08:04;;;;;;;3.70;2.00;;;18.50;47.10;;;;;;10410086;28;20673;-67
2021/04/03 22:13:27;;;;;;;3.17;1.90;;;18.50;47.20;;;;;;10397560;22;20682;-70
2021/04/03 22:18:48;;;;;;;5.13;2.53;;;18.60;47.20;;;;;;10440255;28;20204;-70
2021/04/03 22:24:10;;;;;;;4.33;2.33;;;18.60;47.20;;;;;;10442561;28;20228;-70
2021/04/03 22:29:33;;;;;;;3.27;2.03;;;18.50;47.20;;;;;;10450974;28;20193;-70
2021/04/03 22:34:54;;;;;;;3.57;1.80;;;18.50;47.30;;;;;;10393592;28;20244;-70
2021/04/03 22:40:18;;;;;;;4.70;2.00;;;18.60;47.40;;;;;;10369215;28;20218;-70
2021/04/03 22:45:41;;;;;;;4.47;1.80;;;18.60;47.40;;;;;;10408691;28;20214;-70
2021/04/03 22:51:03;;;;;;;3.70;2.03;;;18.50;47.40;;;;;;10374355;28;20194;-70
2021/04/03 22:56:25;;;;;;;3.80;2.17;;;18.50;47.40;;;;;;10368178;28;20233;-70
2021/04/03 23:01:48;;;;;;;6.00;2.43;;;18.50;47.50;;;;;;10368504;28;20214;-70
2021/04/03 23:07:09;;;;;;;4.60;2.13;;;18.60;47.50;;;;;;10368638;28;20246;-70
2021/04/03 23:12:31;;;;;;;3.90;1.90;;;18.60;47.60;;;;;;10368353;28;20665;-70
2021/04/03 23:17:54;;;;;;;4.27;1.93;;;18.50;47.60;;;;;;10384452;28;20247;-70
2021/04/03 23:23:15;;;;;;;3.27;1.90;;;18.60;47.70;;;;;;10411013;28;20660;-70
2021/04/03 23:28:37;;;;;;;6.13;2.07;;;18.50;47.60;;;;;;10415773;28;20248;-70
2021/04/03 23:33:59;;;;;;;4.73;2.20;;;18.50;47.60;;;;;;10415546;28;20205;-70
2021/04/03 23:39:21;;;;;;;4.53;2.03;;;18.50;47.70;;;;;;10414558;28;20201;-70
2021/04/03 23:44:43;;;;;;;4.90;1.80;;;18.50;47.80;;;;;;10382119;28;20218;-71
2021/04/03 23:50:07;;;;;;;4.10;1.87;;;18.50;47.70;;;;;;10405433;28;20202;-71
2021/04/03 23:55:28;;;;;;;3.27;1.93;;;18.50;47.80;;;;;;10415348;28;20221;-70
